sensor_id;sensor_type;location;lat;lon;timestamp;temperature;humidity
29817;DHT22;16805;52.956;5.906;2023-11-18T00:01:23;4.60;99.90
29817;DHT22;16805;52.956;5.906;2023-11-18T00:03:49;4.60;99.90
29817;DHT22;16805;52.956;5.906;2023-11-18T00:06:15;4.60;99.90
29817;DHT22;16805;52.956;5.906;2023-11-18T00:08:40;4.60;99.90
29817;DHT22;16805;52.956;5.906;2023-11-18T00:11:06;4.60;99.90
29817;DHT22;16805;52.956;5.906;2023-11-18T00:13:32;4.60;99.90
29817;DHT22;16805;52.956;5.906;2023-11-18T00:15:58;4.50;99.90
29817;DHT22;16805;52.956;5.906;2023-11-18T00:18:23;4.60;99.90
29817;DHT22;16805;52.956;5.906;2023-11-18T00:20:49;4.50;99.90
29817;DHT22;16805;52.956;5.906;2023-11-18T00:23:16;4.50;99.90
29817;DHT22;16805;52.956;5.906;2023-11-18T00:25:43;4.50;99.90
29817;DHT22;16805;52.956;5.906;2023-11-18T00:28:11;4.50;99.90
29817;DHT22;16805;52.956;5.906;2023-11-18T00:30:37;4.50;99.90
29817;DHT22;16805;52.956;5.906;2023-11-18T00:33:03;4.50;99.90
29817;DHT22;16805;52.956;5.906;2023-11-18T00:35:28;4.50;99.90
29817;DHT22;16805;52.956;5.906;2023-11-18T00:37:57;4.50;99.90
29817;DHT22;16805;52.956;5.906;2023-11-18T00:40:24;4.60;99.90
29817;DHT22;16805;52.956;5.906;2023-11-18T00:42:50;4.60;99.90
29817;DHT22;16805;52.956;5.906;2023-11-18T00:45:16;4.60;99.90
29817;DHT22;16805;52.956;5.906;2023-11-18T00:47:41;4.60;99.90
29817;DHT22;16805;52.956;5.906;2023-11-18T00:50:07;4.60;99.90
29817;DHT22;16805;52.956;5.906;2023-11-18T00:52:36;4.50;99.90
29817;DHT22;16805;52.956;5.906;2023-11-18T00:55:07;4.50;99.90
29817;DHT22;16805;52.956;5.906;2023-11-18T00:57:34;4.60;99.90
29817;DHT22;16805;52.956;5.906;2023-11-18T01:00:00;4.60;99.90
29817;DHT22;16805;52.956;5.906;2023-11-18T01:02:25;4.60;99.90
29817;DHT22;16805;52.956;5.906;2023-11-18T01:04:52;4.60;99.90
29817;DHT22;16805;52.956;5.906;2023-11-18T01:07:17;4.60;99.90
29817;DHT22;16805;52.956;5.906;2023-11-18T01:09:43;4.50;99.90
29817;DHT22;16805;52.956;5.906;2023-11-18T01:12:08;4.60;99.90
29817;DHT22;16805;52.956;5.906;2023-11-18T01:14:38;4.50;99.90
29817;DHT22;16805;52.956;5.906;2023-11-18T01:17:05;4.50;99.90
29817;DHT22;16805;52.956;5.906;2023-11-18T01:19:31;4.50;99.90
29817;DHT22;16805;52.956;5.906;2023-11-18T01:21:57;4.50;99.90
29817;DHT22;16805;52.956;5.906;2023-11-18T01:24:22;4.50;99.90
29817;DHT22;16805;52.956;5.906;2023-11-18T01:26:48;4.50;99.90
29817;DHT22;16805;52.956;5.906;2023-11-18T01:29:14;4.50;99.90
29817;DHT22;16805;52.956;5.906;2023-11-18T01:31:39;4.50;99.90
29817;DHT22;16805;52.956;5.906;2023-11-18T01:34:09;4.50;99.90
29817;DHT22;16805;52.956;5.906;2023-11-18T01:36:35;4.50;99.90
29817;DHT22;16805;52.956;5.906;2023-11-18T01:39:00;4.50;99.90
29817;DHT22;16805;52.956;5.906;2023-11-18T01:41:26;4.50;99.90
29817;DHT22;16805;52.956;5.906;2023-11-18T01:43:52;4.50;99.90
29817;DHT22;16805;52.956;5.906;2023-11-18T01:46:18;4.50;99.90
29817;DHT22;16805;52.956;5.906;2023-11-18T01:48:45;4.50;99.90
29817;DHT22;16805;52.956;5.906;2023-11-18T01:51:12;4.50;99.90
29817;DHT22;16805;52.956;5.906;2023-11-18T01:53:38;4.50;99.90
29817;DHT22;16805;52.956;5.906;2023-11-18T01:56:05;4.50;99.90
29817;DHT22;16805;52.956;5.906;2023-11-18T01:58:33;4.50;99.90
29817;DHT22;16805;52.956;5.906;2023-11-18T02:01:01;4.50;99.90
29817;DHT22;16805;52.956;5.906;2023-11-18T02:03:27;4.50;99.90
29817;DHT22;16805;52.956;5.906;2023-11-18T02:05:53;4.50;99.90
29817;DHT22;16805;52.956;5.906;2023-11-18T02:08:19;4.50;99.90
29817;DHT22;16805;52.956;5.906;2023-11-18T02:10:54;4.50;99.90
29817;DHT22;16805;52.956;5.906;2023-11-18T02:13:29;4.50;99.90
29817;DHT22;16805;52.956;5.906;2023-11-18T02:15:56;4.50;99.90
29817;DHT22;16805;52.956;5.906;2023-11-18T02:18:25;4.50;99.90
29817;DHT22;16805;52.956;5.906;2023-11-18T02:20:55;4.50;99.90
29817;DHT22;16805;52.956;5.906;2023-11-18T02:23:25;4.50;99.90
29817;DHT22;16805;52.956;5.906;2023-11-18T02:25:52;4.50;99.90
29817;DHT22;16805;52.956;5.906;2023-11-18T02:28:18;4.50;99.90
29817;DHT22;16805;52.956;5.906;2023-11-18T02:30:45;4.50;99.90
29817;DHT22;16805;52.956;5.906;2023-11-18T02:33:19;4.50;99.90
29817;DHT22;16805;52.956;5.906;2023-11-18T02:35:58;4.50;99.90
29817;DHT22;16805;52.956;5.906;2023-11-18T02:38:30;4.60;99.90
29817;DHT22;16805;52.956;5.906;2023-11-18T02:40:58;4.60;99.90
29817;DHT22;16805;52.956;5.906;2023-11-18T02:43:26;4.60;99.90
29817;DHT22;16805;52.956;5.906;2023-11-18T02:45:54;4.60;99.90
29817;DHT22;16805;52.956;5.906;2023-11-18T02:48:21;4.70;99.90
29817;DHT22;16805;52.956;5.906;2023-11-18T02:50:47;4.70;99.90
29817;DHT22;16805;52.956;5.906;2023-11-18T02:53:13;4.70;99.90
29817;DHT22;16805;52.956;5.906;2023-11-18T02:55:38;4.60;99.90
29817;DHT22;16805;52.956;5.906;2023-11-18T02:58:06;4.60;99.90
29817;DHT22;16805;52.956;5.906;2023-11-18T03:00:33;4.60;99.90
29817;DHT22;16805;52.956;5.906;2023-11-18T03:02:58;4.60;99.90
29817;DHT22;16805;52.956;5.906;2023-11-18T03:05:24;4.60;99.90
29817;DHT22;16805;52.956;5.906;2023-11-18T03:07:51;4.60;99.90
29817;DHT22;16805;52.956;5.906;2023-11-18T03:10:19;4.60;99.90
29817;DHT22;16805;52.956;5.906;2023-11-18T03:12:52;4.60;99.90
29817;DHT22;16805;52.956;5.906;2023-11-18T03:15:19;4.60;99.90
29817;DHT22;16805;52.956;5.906;2023-11-18T03:17:45;4.60;99.90
29817;DHT22;16805;52.956;5.906;2023-11-18T03:20:13;4.60;99.90
29817;DHT22;16805;52.956;5.906;2023-11-18T03:22:45;4.60;99.90
29817;DHT22;16805;52.956;5.906;2023-11-18T03:25:12;4.60;99.90
29817;DHT22;16805;52.956;5.906;2023-11-18T03:27:38;4.60;99.90
29817;DHT22;16805;52.956;5.906;2023-11-18T03:30:05;4.60;99.90
29817;DHT22;16805;52.956;5.906;2023-11-18T03:32:32;4.60;99.90
29817;DHT22;16805;52.956;5.906;2023-11-18T03:34:58;4.60;99.90
29817;DHT22;16805;52.956;5.906;2023-11-18T03:37:24;4.60;99.90
29817;DHT22;16805;52.956;5.906;2023-11-18T03:39:52;4.70;99.90
29817;DHT22;16805;52.956;5.906;2023-11-18T03:42:17;4.60;99.90
29817;DHT22;16805;52.956;5.906;2023-11-18T03:44:43;4.70;99.90
29817;DHT22;16805;52.956;5.906;2023-11-18T03:47:09;4.70;99.90
29817;DHT22;16805;52.956;5.906;2023-11-18T03:49:35;4.70;99.90
29817;DHT22;16805;52.956;5.906;2023-11-18T03:52:00;4.70;99.90
29817;DHT22;16805;52.956;5.906;2023-11-18T03:54:26;4.70;99.90
29817;DHT22;16805;52.956;5.906;2023-11-18T03:56:52;4.70;99.90
29817;DHT22;16805;52.956;5.906;2023-11-18T03:59:18;4.70;99.90
29817;DHT22;16805;52.956;5.906;2023-11-18T04:01:43;4.80;99.90
29817;DHT22;16805;52.956;5.906;2023-11-18T04:04:09;4.70;99.90
29817;DHT22;16805;52.956;5.906;2023-11-18T04:06:34;4.80;99.90
29817;DHT22;16805;52.956;5.906;2023-11-18T04:09:00;4.80;99.90
29817;DHT22;16805;52.956;5.906;2023-11-18T04:11:26;4.80;99.90
29817;DHT22;16805;52.956;5.906;2023-11-18T04:13:51;4.80;99.90
29817;DHT22;16805;52.956;5.906;2023-11-18T04:16:17;4.70;99.90
29817;DHT22;16805;52.956;5.906;2023-11-18T04:18:45;4.70;99.90
29817;DHT22;16805;52.956;5.906;2023-11-18T04:21:11;4.70;99.90
29817;DHT22;16805;52.956;5.906;2023-11-18T04:23:39;4.70;99.90
29817;DHT22;16805;52.956;5.906;2023-11-18T04:26:05;4.70;99.90
29817;DHT22;16805;52.956;5.906;2023-11-18T04:28:32;4.70;99.90
29817;DHT22;16805;52.956;5.906;2023-11-18T04:30:58;4.70;99.90
29817;DHT22;16805;52.956;5.906;2023-11-18T04:33:24;4.70;99.90
29817;DHT22;16805;52.956;5.906;2023-11-18T04:35:54;4.70;99.90
29817;DHT22;16805;52.956;5.906;2023-11-18T04:38:22;4.70;99.90
29817;DHT22;16805;52.956;5.906;2023-11-18T04:40:48;4.70;99.90
29817;DHT22;16805;52.956;5.906;2023-11-18T04:43:14;4.70;99.90
29817;DHT22;16805;52.956;5.906;2023-11-18T04:45:42;4.70;99.90
29817;DHT22;16805;52.956;5.906;2023-11-18T04:48:07;4.70;99.90
29817;DHT22;16805;52.956;5.906;2023-11-18T04:50:33;4.70;99.90
29817;DHT22;16805;52.956;5.906;2023-11-18T04:52:59;4.60;99.90
29817;DHT22;16805;52.956;5.906;2023-11-18T04:55:25;4.70;99.90
29817;DHT22;16805;52.956;5.906;2023-11-18T04:57:54;4.70;99.90
29817;DHT22;16805;52.956;5.906;2023-11-18T05:00:20;4.70;99.90
29817;DHT22;16805;52.956;5.906;2023-11-18T05:02:47;4.70;99.90
29817;DHT22;16805;52.956;5.906;2023-11-18T05:05:14;4.70;99.90
29817;DHT22;16805;52.956;5.906;2023-11-18T05:07:40;4.70;99.90
29817;DHT22;16805;52.956;5.906;2023-11-18T05:10:06;4.70;99.90
29817;DHT22;16805;52.956;5.906;2023-11-18T05:12:38;4.70;99.90
29817;DHT22;16805;52.956;5.906;2023-11-18T05:15:06;4.70;99.90
29817;DHT22;16805;52.956;5.906;2023-11-18T05:17:34;4.80;99.90
29817;DHT22;16805;52.956;5.906;2023-11-18T05:20:04;4.80;99.90
29817;DHT22;16805;52.956;5.906;2023-11-18T05:22:30;4.80;99.90
29817;DHT22;16805;52.956;5.906;2023-11-18T05:24:57;4.80;99.90
29817;DHT22;16805;52.956;5.906;2023-11-18T05:27:23;4.80;99.90
29817;DHT22;16805;52.956;5.906;2023-11-18T05:29:49;4.80;99.90
29817;DHT22;16805;52.956;5.906;2023-11-18T05:32:20;4.80;99.90
29817;DHT22;16805;52.956;5.906;2023-11-18T05:34:46;4.80;99.90
29817;DHT22;16805;52.956;5.906;2023-11-18T05:37:12;4.80;99.90
29817;DHT22;16805;52.956;5.906;2023-11-18T05:39:37;4.90;99.90
29817;DHT22;16805;52.956;5.906;2023-11-18T05:42:09;4.90;99.90
29817;DHT22;16805;52.956;5.906;2023-11-18T05:44:36;4.90;99.90
29817;DHT22;16805;52.956;5.906;2023-11-18T05:47:07;4.90;99.90
29817;DHT22;16805;52.956;5.906;2023-11-18T05:49:34;4.90;99.90
29817;DHT22;16805;52.956;5.906;2023-11-18T05:52:00;4.90;99.90
29817;DHT22;16805;52.956;5.906;2023-11-18T05:54:26;4.90;99.90
29817;DHT22;16805;52.956;5.906;2023-11-18T05:56:52;4.90;99.90
29817;DHT22;16805;52.956;5.906;2023-11-18T05:59:19;4.90;99.90
29817;DHT22;16805;52.956;5.906;2023-11-18T06:01:44;4.90;99.90
29817;DHT22;16805;52.956;5.906;2023-11-18T06:04:13;4.90;99.90
29817;DHT22;16805;52.956;5.906;2023-11-18T06:06:38;4.90;99.90
29817;DHT22;16805;52.956;5.906;2023-11-18T06:09:04;4.90;99.90
29817;DHT22;16805;52.956;5.906;2023-11-18T06:11:34;4.90;99.90
29817;DHT22;16805;52.956;5.906;2023-11-18T06:14:01;4.90;99.90
29817;DHT22;16805;52.956;5.906;2023-11-18T06:16:27;4.90;99.90
29817;DHT22;16805;52.956;5.906;2023-11-18T06:18:54;4.90;99.90
29817;DHT22;16805;52.956;5.906;2023-11-18T06:21:22;4.90;99.90
29817;DHT22;16805;52.956;5.906;2023-11-18T06:23:54;4.90;99.90
29817;DHT22;16805;52.956;5.906;2023-11-18T06:26:23;4.90;99.90
29817;DHT22;16805;52.956;5.906;2023-11-18T06:28:54;4.90;99.90
29817;DHT22;16805;52.956;5.906;2023-11-18T06:31:21;5.00;99.90
29817;DHT22;16805;52.956;5.906;2023-11-18T06:33:47;5.00;99.90
29817;DHT22;16805;52.956;5.906;2023-11-18T06:38:49;5.00;99.90
29817;DHT22;16805;52.956;5.906;2023-11-18T06:41:15;5.00;99.90
29817;DHT22;16805;52.956;5.906;2023-11-18T06:43:43;5.10;99.90
29817;DHT22;16805;52.956;5.906;2023-11-18T06:46:23;5.00;99.90
29817;DHT22;16805;52.956;5.906;2023-11-18T06:48:54;5.10;99.90
29817;DHT22;16805;52.956;5.906;2023-11-18T06:51:24;5.10;99.90
29817;DHT22;16805;52.956;5.906;2023-11-18T06:53:54;5.10;99.90
29817;DHT22;16805;52.956;5.906;2023-11-18T06:56:26;5.10;99.90
29817;DHT22;16805;52.956;5.906;2023-11-18T06:58:56;5.10;99.90
29817;DHT22;16805;52.956;5.906;2023-11-18T07:01:22;5.10;99.90
29817;DHT22;16805;52.956;5.906;2023-11-18T07:03:48;5.10;99.90
29817;DHT22;16805;52.956;5.906;2023-11-18T07:06:18;5.10;99.90
29817;DHT22;16805;52.956;5.906;2023-11-18T07:08:52;5.10;99.90
29817;DHT22;16805;52.956;5.906;2023-11-18T07:11:19;5.10;99.90
29817;DHT22;16805;52.956;5.906;2023-11-18T07:13:47;5.10;99.90
29817;DHT22;16805;52.956;5.906;2023-11-18T07:16:13;5.10;99.90
29817;DHT22;16805;52.956;5.906;2023-11-18T07:18:40;5.20;99.90
29817;DHT22;16805;52.956;5.906;2023-11-18T07:21:07;5.20;99.90
29817;DHT22;16805;52.956;5.906;2023-11-18T07:23:35;5.20;99.90
29817;DHT22;16805;52.956;5.906;2023-11-18T07:26:01;5.20;99.90
29817;DHT22;16805;52.956;5.906;2023-11-18T07:28:29;5.20;99.90
29817;DHT22;16805;52.956;5.906;2023-11-18T07:30:55;5.20;99.90
29817;DHT22;16805;52.956;5.906;2023-11-18T07:33:21;5.20;99.90
29817;DHT22;16805;52.956;5.906;2023-11-18T07:35:47;5.20;99.90
29817;DHT22;16805;52.956;5.906;2023-11-18T07:38:15;5.20;99.90
29817;DHT22;16805;52.956;5.906;2023-11-18T07:40:41;5.20;99.90
29817;DHT22;16805;52.956;5.906;2023-11-18T07:43:11;5.20;99.90
29817;DHT22;16805;52.956;5.906;2023-11-18T07:45:37;5.20;99.90
29817;DHT22;16805;52.956;5.906;2023-11-18T07:48:12;5.20;99.90
29817;DHT22;16805;52.956;5.906;2023-11-18T07:50:41;5.20;99.90
29817;DHT22;16805;52.956;5.906;2023-11-18T07:53:07;5.30;99.90
29817;DHT22;16805;52.956;5.906;2023-11-18T07:55:33;5.30;99.90
29817;DHT22;16805;52.956;5.906;2023-11-18T07:58:03;5.30;99.90
29817;DHT22;16805;52.956;5.906;2023-11-18T08:00:29;5.30;99.90
29817;DHT22;16805;52.956;5.906;2023-11-18T08:02:58;5.40;99.90
29817;DHT22;16805;52.956;5.906;2023-11-18T08:05:26;5.40;99.90
29817;DHT22;16805;52.956;5.906;2023-11-18T08:07:51;5.40;99.90
29817;DHT22;16805;52.956;5.906;2023-11-18T08:10:19;5.40;99.90
29817;DHT22;16805;52.956;5.906;2023-11-18T08:12:45;5.40;99.90
29817;DHT22;16805;52.956;5.906;2023-11-18T08:15:12;5.40;99.90
29817;DHT22;16805;52.956;5.906;2023-11-18T08:17:37;5.40;99.90
29817;DHT22;16805;52.956;5.906;2023-11-18T08:20:03;5.40;99.90
29817;DHT22;16805;52.956;5.906;2023-11-18T08:22:40;5.40;99.90
29817;DHT22;16805;52.956;5.906;2023-11-18T08:25:06;5.50;99.90
29817;DHT22;16805;52.956;5.906;2023-11-18T08:27:34;5.50;99.90
29817;DHT22;16805;52.956;5.906;2023-11-18T08:30:01;5.50;99.90
29817;DHT22;16805;52.956;5.906;2023-11-18T08:32:27;5.50;99.90
29817;DHT22;16805;52.956;5.906;2023-11-18T08:34:52;5.60;99.90
29817;DHT22;16805;52.956;5.906;2023-11-18T08:37:18;5.50;99.90
29817;DHT22;16805;52.956;5.906;2023-11-18T08:39:44;5.60;99.90
29817;DHT22;16805;52.956;5.906;2023-11-18T08:42:10;5.60;99.90
29817;DHT22;16805;52.956;5.906;2023-11-18T08:44:35;5.60;99.90
29817;DHT22;16805;52.956;5.906;2023-11-18T08:47:04;5.60;99.90
29817;DHT22;16805;52.956;5.906;2023-11-18T08:49:34;5.60;99.90
29817;DHT22;16805;52.956;5.906;2023-11-18T08:51:59;5.60;99.90
29817;DHT22;16805;52.956;5.906;2023-11-18T08:54:25;5.60;99.90
29817;DHT22;16805;52.956;5.906;2023-11-18T08:56:54;5.60;99.90
29817;DHT22;16805;52.956;5.906;2023-11-18T08:59:20;5.60;99.90
29817;DHT22;16805;52.956;5.906;2023-11-18T09:01:53;5.70;99.90
29817;DHT22;16805;52.956;5.906;2023-11-18T09:04:25;5.70;99.90
29817;DHT22;16805;52.956;5.906;2023-11-18T09:06:51;5.70;99.90
29817;DHT22;16805;52.956;5.906;2023-11-18T09:09:20;5.70;99.90
29817;DHT22;16805;52.956;5.906;2023-11-18T09:11:54;5.70;99.90
29817;DHT22;16805;52.956;5.906;2023-11-18T09:14:22;5.70;99.90
29817;DHT22;16805;52.956;5.906;2023-11-18T09:16:50;5.80;99.90
29817;DHT22;16805;52.956;5.906;2023-11-18T09:19:16;5.80;99.90
29817;DHT22;16805;52.956;5.906;2023-11-18T09:21:43;5.80;99.90
29817;DHT22;16805;52.956;5.906;2023-11-18T09:24:09;5.80;99.90
29817;DHT22;16805;52.956;5.906;2023-11-18T09:26:38;5.80;99.90
29817;DHT22;16805;52.956;5.906;2023-11-18T09:29:05;5.80;99.90
29817;DHT22;16805;52.956;5.906;2023-11-18T09:31:36;5.90;99.90
29817;DHT22;16805;52.956;5.906;2023-11-18T09:34:03;5.90;99.90
29817;DHT22;16805;52.956;5.906;2023-11-18T09:36:32;5.90;99.90
29817;DHT22;16805;52.956;5.906;2023-11-18T09:38:59;5.90;99.90
29817;DHT22;16805;52.956;5.906;2023-11-18T09:41:25;5.90;99.90
29817;DHT22;16805;52.956;5.906;2023-11-18T09:43:52;5.90;99.90
29817;DHT22;16805;52.956;5.906;2023-11-18T09:46:24;5.90;99.90
29817;DHT22;16805;52.956;5.906;2023-11-18T09:48:51;5.90;99.90
29817;DHT22;16805;52.956;5.906;2023-11-18T09:51:26;5.90;99.90
29817;DHT22;16805;52.956;5.906;2023-11-18T09:54:04;6.00;99.90
29817;DHT22;16805;52.956;5.906;2023-11-18T09:59:11;6.00;99.90
29817;DHT22;16805;52.956;5.906;2023-11-18T10:01:42;6.00;99.90
29817;DHT22;16805;52.956;5.906;2023-11-18T10:04:13;6.00;99.90
29817;DHT22;16805;52.956;5.906;2023-11-18T10:06:39;6.00;99.90
29817;DHT22;16805;52.956;5.906;2023-11-18T10:09:10;6.00;99.90
29817;DHT22;16805;52.956;5.906;2023-11-18T10:11:47;6.00;99.90
29817;DHT22;16805;52.956;5.906;2023-11-18T10:14:16;6.00;99.90
29817;DHT22;16805;52.956;5.906;2023-11-18T10:16:43;6.00;99.90
29817;DHT22;16805;52.956;5.906;2023-11-18T10:19:12;6.00;99.90
29817;DHT22;16805;52.956;5.906;2023-11-18T10:21:38;6.00;99.90
29817;DHT22;16805;52.956;5.906;2023-11-18T10:24:06;6.00;99.90
29817;DHT22;16805;52.956;5.906;2023-11-18T10:26:43;6.00;99.90
29817;DHT22;16805;52.956;5.906;2023-11-18T10:29:10;6.00;99.90
29817;DHT22;16805;52.956;5.906;2023-11-18T10:31:38;6.00;99.90
29817;DHT22;16805;52.956;5.906;2023-11-18T10:34:13;6.00;99.90
29817;DHT22;16805;52.956;5.906;2023-11-18T10:36:41;6.00;99.90
29817;DHT22;16805;52.956;5.906;2023-11-18T10:39:13;6.00;99.90
29817;DHT22;16805;52.956;5.906;2023-11-18T10:41:41;6.00;99.90
29817;DHT22;16805;52.956;5.906;2023-11-18T10:44:09;6.00;99.90
29817;DHT22;16805;52.956;5.906;2023-11-18T10:46:53;6.00;99.90
29817;DHT22;16805;52.956;5.906;2023-11-18T10:49:22;6.00;99.90
29817;DHT22;16805;52.956;5.906;2023-11-18T10:52:20;6.00;99.90
29817;DHT22;16805;52.956;5.906;2023-11-18T10:58:36;6.00;99.90
29817;DHT22;16805;52.956;5.906;2023-11-18T11:01:06;6.00;99.90
29817;DHT22;16805;52.956;5.906;2023-11-18T11:03:52;6.00;99.90
29817;DHT22;16805;52.956;5.906;2023-11-18T11:06:22;6.00;99.90
29817;DHT22;16805;52.956;5.906;2023-11-18T11:08:52;6.00;99.90
29817;DHT22;16805;52.956;5.906;2023-11-18T11:11:22;6.00;99.90
29817;DHT22;16805;52.956;5.906;2023-11-18T11:13:53;6.00;99.90
29817;DHT22;16805;52.956;5.906;2023-11-18T11:16:21;6.00;99.90
29817;DHT22;16805;52.956;5.906;2023-11-18T11:18:53;6.00;99.90
29817;DHT22;16805;52.956;5.906;2023-11-18T11:21:25;6.10;99.90
29817;DHT22;16805;52.956;5.906;2023-11-18T11:23:55;6.10;99.90
29817;DHT22;16805;52.956;5.906;2023-11-18T11:26:40;6.10;99.90
29817;DHT22;16805;52.956;5.906;2023-11-18T11:32:29;6.10;99.90
29817;DHT22;16805;52.956;5.906;2023-11-18T11:35:01;6.10;99.90
29817;DHT22;16805;52.956;5.906;2023-11-18T11:37:33;6.10;99.90
29817;DHT22;16805;52.956;5.906;2023-11-18T11:40:02;6.10;99.90
29817;DHT22;16805;52.956;5.906;2023-11-18T11:42:35;6.10;99.90
29817;DHT22;16805;52.956;5.906;2023-11-18T11:45:01;6.10;99.90
29817;DHT22;16805;52.956;5.906;2023-11-18T11:47:29;6.10;99.90
29817;DHT22;16805;52.956;5.906;2023-11-18T11:50:15;6.10;99.90
29817;DHT22;16805;52.956;5.906;2023-11-18T11:52:53;6.10;99.90
29817;DHT22;16805;52.956;5.906;2023-11-18T11:55:33;6.10;99.90
29817;DHT22;16805;52.956;5.906;2023-11-18T11:58:02;6.10;99.90
29817;DHT22;16805;52.956;5.906;2023-11-18T12:00:27;6.10;99.90
29817;DHT22;16805;52.956;5.906;2023-11-18T12:03:01;6.10;99.90
29817;DHT22;16805;52.956;5.906;2023-11-18T12:05:30;6.10;99.90
29817;DHT22;16805;52.956;5.906;2023-11-18T12:07:59;6.10;99.90
29817;DHT22;16805;52.956;5.906;2023-11-18T12:10:30;6.10;99.90
29817;DHT22;16805;52.956;5.906;2023-11-18T12:13:11;6.10;99.90
29817;DHT22;16805;52.956;5.906;2023-11-18T12:15:54;6.10;99.90
29817;DHT22;16805;52.956;5.906;2023-11-18T12:18:23;6.10;99.90
29817;DHT22;16805;52.956;5.906;2023-11-18T12:20:50;6.10;99.90
29817;DHT22;16805;52.956;5.906;2023-11-18T12:23:23;6.10;99.90
29817;DHT22;16805;52.956;5.906;2023-11-18T12:25:51;6.10;99.90
29817;DHT22;16805;52.956;5.906;2023-11-18T12:28:27;6.10;99.90
29817;DHT22;16805;52.956;5.906;2023-11-18T12:30:56;6.10;99.90
29817;DHT22;16805;52.956;5.906;2023-11-18T12:33:23;6.10;99.90
29817;DHT22;16805;52.956;5.906;2023-11-18T12:36:01;6.10;99.90
29817;DHT22;16805;52.956;5.906;2023-11-18T12:44:29;6.10;99.90
29817;DHT22;16805;52.956;5.906;2023-11-18T12:47:02;6.10;99.90
29817;DHT22;16805;52.956;5.906;2023-11-18T12:49:44;6.10;99.90
29817;DHT22;16805;52.956;5.906;2023-11-18T12:52:16;6.10;99.90
29817;DHT22;16805;52.956;5.906;2023-11-18T12:54:44;6.10;99.90
29817;DHT22;16805;52.956;5.906;2023-11-18T12:57:16;6.10;99.90
29817;DHT22;16805;52.956;5.906;2023-11-18T12:59:43;6.10;99.90
29817;DHT22;16805;52.956;5.906;2023-11-18T13:02:11;6.10;99.90
29817;DHT22;16805;52.956;5.906;2023-11-18T13:04:43;6.10;99.90
29817;DHT22;16805;52.956;5.906;2023-11-18T13:07:16;6.10;99.90
29817;DHT22;16805;52.956;5.906;2023-11-18T13:09:43;6.20;99.90
29817;DHT22;16805;52.956;5.906;2023-11-18T13:12:11;6.20;99.90
29817;DHT22;16805;52.956;5.906;2023-11-18T13:14:43;6.20;99.90
29817;DHT22;16805;52.956;5.906;2023-11-18T13:17:09;6.20;99.90
29817;DHT22;16805;52.956;5.906;2023-11-18T13:19:37;6.20;99.90
29817;DHT22;16805;52.956;5.906;2023-11-18T13:22:08;6.20;99.90
29817;DHT22;16805;52.956;5.906;2023-11-18T13:24:34;6.20;99.90
29817;DHT22;16805;52.956;5.906;2023-11-18T13:27:00;6.20;99.90
29817;DHT22;16805;52.956;5.906;2023-11-18T13:29:30;6.20;99.90
29817;DHT22;16805;52.956;5.906;2023-11-18T13:31:56;6.30;99.90
29817;DHT22;16805;52.956;5.906;2023-11-18T13:34:23;6.30;99.90
29817;DHT22;16805;52.956;5.906;2023-11-18T13:36:50;6.30;99.90
29817;DHT22;16805;52.956;5.906;2023-11-18T13:39:18;6.30;99.90
29817;DHT22;16805;52.956;5.906;2023-11-18T13:41:44;6.30;99.90
29817;DHT22;16805;52.956;5.906;2023-11-18T13:44:10;6.30;99.90
29817;DHT22;16805;52.956;5.906;2023-11-18T13:46:39;6.30;99.90
29817;DHT22;16805;52.956;5.906;2023-11-18T13:49:07;6.30;99.90
29817;DHT22;16805;52.956;5.906;2023-11-18T13:51:33;6.30;99.90
29817;DHT22;16805;52.956;5.906;2023-11-18T13:54:01;6.30;99.90
29817;DHT22;16805;52.956;5.906;2023-11-18T13:56:28;6.30;99.90
29817;DHT22;16805;52.956;5.906;2023-11-18T13:58:53;6.30;99.90
29817;DHT22;16805;52.956;5.906;2023-11-18T14:01:20;6.30;99.90
29817;DHT22;16805;52.956;5.906;2023-11-18T14:03:47;6.30;99.90
29817;DHT22;16805;52.956;5.906;2023-11-18T14:06:14;6.30;99.90
29817;DHT22;16805;52.956;5.906;2023-11-18T14:08:43;6.30;99.90
29817;DHT22;16805;52.956;5.906;2023-11-18T14:11:10;6.30;99.90
29817;DHT22;16805;52.956;5.906;2023-11-18T14:13:36;6.30;99.90
29817;DHT22;16805;52.956;5.906;2023-11-18T14:16:03;6.30;99.90
29817;DHT22;16805;52.956;5.906;2023-11-18T14:18:29;6.30;99.90
29817;DHT22;16805;52.956;5.906;2023-11-18T14:20:55;6.40;99.90
29817;DHT22;16805;52.956;5.906;2023-11-18T14:23:21;6.40;99.90
29817;DHT22;16805;52.956;5.906;2023-11-18T14:25:48;6.30;99.90
29817;DHT22;16805;52.956;5.906;2023-11-18T14:28:13;6.40;99.90
29817;DHT22;16805;52.956;5.906;2023-11-18T14:30:39;6.40;99.90
29817;DHT22;16805;52.956;5.906;2023-11-18T14:33:05;6.40;99.90
29817;DHT22;16805;52.956;5.906;2023-11-18T14:35:32;6.40;99.90
29817;DHT22;16805;52.956;5.906;2023-11-18T14:37:58;6.50;99.90
29817;DHT22;16805;52.956;5.906;2023-11-18T15:09:05;6.60;99.90
29817;DHT22;16805;52.956;5.906;2023-11-18T15:56:39;6.80;99.90
29817;DHT22;16805;52.956;5.906;2023-11-18T15:59:10;6.70;99.90
29817;DHT22;16805;52.956;5.906;2023-11-18T16:01:44;6.80;99.90
29817;DHT22;16805;52.956;5.906;2023-11-18T16:04:17;6.80;99.90
29817;DHT22;16805;52.956;5.906;2023-11-18T16:06:44;6.80;99.90
29817;DHT22;16805;52.956;5.906;2023-11-18T16:09:12;6.80;99.90
29817;DHT22;16805;52.956;5.906;2023-11-18T16:11:40;6.80;99.90
29817;DHT22;16805;52.956;5.906;2023-11-18T16:14:09;6.80;99.90
29817;DHT22;16805;52.956;5.906;2023-11-18T16:16:39;6.80;99.90
29817;DHT22;16805;52.956;5.906;2023-11-18T16:19:10;6.80;99.90
29817;DHT22;16805;52.956;5.906;2023-11-18T16:21:49;6.90;99.90
29817;DHT22;16805;52.956;5.906;2023-11-18T16:24:41;6.90;99.90
29817;DHT22;16805;52.956;5.906;2023-11-18T16:27:19;6.90;99.90
29817;DHT22;16805;52.956;5.906;2023-11-18T16:29:49;6.90;99.90
29817;DHT22;16805;52.956;5.906;2023-11-18T16:32:16;6.90;99.90
29817;DHT22;16805;52.956;5.906;2023-11-18T16:34:50;6.90;99.90
29817;DHT22;16805;52.956;5.906;2023-11-18T16:37:21;6.90;99.90
29817;DHT22;16805;52.956;5.906;2023-11-18T16:39:53;6.90;99.90
29817;DHT22;16805;52.956;5.906;2023-11-18T16:42:22;6.90;99.90
29817;DHT22;16805;52.956;5.906;2023-11-18T16:44:54;6.90;99.90
29817;DHT22;16805;52.956;5.906;2023-11-18T16:47:22;7.00;99.90
29817;DHT22;16805;52.956;5.906;2023-11-18T16:49:53;7.00;99.90
29817;DHT22;16805;52.956;5.906;2023-11-18T16:52:22;7.00;99.90
29817;DHT22;16805;52.956;5.906;2023-11-18T16:54:54;7.00;99.90
29817;DHT22;16805;52.956;5.906;2023-11-18T16:57:27;7.00;99.90
29817;DHT22;16805;52.956;5.906;2023-11-18T17:00:08;7.00;99.90
29817;DHT22;16805;52.956;5.906;2023-11-18T17:02:54;7.00;99.90
29817;DHT22;16805;52.956;5.906;2023-11-18T17:05:22;7.00;99.90
29817;DHT22;16805;52.956;5.906;2023-11-18T17:07:51;7.00;99.90
29817;DHT22;16805;52.956;5.906;2023-11-18T17:10:22;7.10;99.90
29817;DHT22;16805;52.956;5.906;2023-11-18T17:12:50;7.10;99.90
29817;DHT22;16805;52.956;5.906;2023-11-18T17:15:17;7.10;99.90
29817;DHT22;16805;52.956;5.906;2023-11-18T17:17:48;7.10;99.90
29817;DHT22;16805;52.956;5.906;2023-11-18T17:20:29;7.10;99.90
29817;DHT22;16805;52.956;5.906;2023-11-18T17:22:59;7.10;99.90
29817;DHT22;16805;52.956;5.906;2023-11-18T17:25:37;7.10;99.90